Time;durP1;ratioP1;P1;durP2;ratioP2;P2;SDS_P1;SDS_P2;PMS_P1;PMS_P2;Temp;Humidity;BMP_temperature;BMP_pressure;BME280_temperature;BME280_humidity;BME280_pressure;Samples;Min_cycle;Max_cycle;Signal;HPM_P1;HPM_P2
2022/01/07 21:36:53;;;;;;;45.53;20.33;;;-3.80;69.60;;;;;;5102225;27;20967;-69
2022/01/07 21:39:19;;;;;;;57.45;23.45;;;-3.80;69.30;;;;;;5067398;28;20496;-69
2022/01/07 21:41:51;;;;;;;52.10;24.10;;;-3.50;70.70;;;;;;5063751;28;20365;-70
2022/01/07 21:44:26;;;;;;;60.67;27.05;;;-3.40;71.40;;;;;;5074475;28;20124;-69
2022/01/07 21:46:56;;;;;;;44.70;20.15;;;-3.20;72.20;;;;;;5068841;28;20128;-70
2022/01/07 21:49:27;;;;;;;59.05;24.88;;;-3.00;72.60;;;;;;5068566;28;20029;-69
2022/01/07 21:52:35;;;;;;;63.63;32.58;;;-2.90;72.90;;;;;;5067433;28;20044;-70
2022/01/07 21:55:28;;;;;;;41.70;19.60;;;-2.80;73.00;;;;;;5079332;28;20055;-69
2022/01/07 21:57:55;;;;;;;49.97;20.83;;;-2.70;73.40;;;;;;5081500;28;20131;-69
2022/01/07 22:00:40;;;;;;;38.13;18.55;;;-2.60;73.30;;;;;;5067849;28;20037;-70
2022/01/07 22:03:38;;;;;;;27.10;12.75;;;-2.50;73.50;;;;;;5076252;28;20039;-69
2022/01/07 22:06:13;;;;;;;19.55;9.30;;;-2.40;73.50;;;;;;5089179;28;20047;-69
2022/01/07 22:08:40;;;;;;;21.40;8.35;;;-2.30;73.40;;;;;;5091672;28;20044;-69
2022/01/07 22:11:06;;;;;;;20.70;9.07;;;-2.20;73.30;;;;;;5099520;28;20408;-69
2022/01/07 22:13:48;;;;;;;23.90;8.98;;;-2.20;73.20;;;;;;5088242;28;20131;-69
2022/01/07 22:16:53;;;;;;;26.25;12.07;;;-2.10;72.90;;;;;;5100615;28;20501;-70
2022/01/07 22:19:20;;;;;;;32.53;16.92;;;-2.10;72.80;;;;;;5093240;28;20030;-69
2022/01/07 22:21:56;;;;;;;32.38;16.02;;;-2.10;72.80;;;;;;5087439;28;20463;-68
2022/01/07 22:24:23;;;;;;;33.88;16.23;;;-2.00;72.80;;;;;;5087981;28;20213;-69
2022/01/07 22:26:59;;;;;;;29.85;15.23;;;-2.00;72.50;;;;;;5084077;28;20036;-69
2022/01/07 22:29:26;;;;;;;44.13;17.80;;;-2.00;72.30;;;;;;5074092;28;20145;-69
2022/01/07 22:32:18;;;;;;;34.00;16.70;;;-2.00;72.20;;;;;;5109672;28;20438;-69
2022/01/07 22:35:22;;;;;;;43.97;19.73;;;-2.00;72.10;;;;;;5101176;28;20040;-69
2022/01/07 22:37:58;;;;;;;61.00;24.17;;;-2.00;72.00;;;;;;5076507;28;20076;-69
2022/01/07 22:40:24;;;;;;;68.45;29.63;;;-1.90;71.90;;;;;;5071678;28;20041;-70
2022/01/07 22:42:50;;;;;;;;;;;-2.00;71.70;;;;;;5083403;28;20027;-70
2022/01/07 22:45:22;;;;;;;46.45;19.20;;;-2.00;72.00;;;;;;5079316;28;19954;-69
2022/01/07 22:47:48;;;;;;;46.45;20.25;;;-2.00;71.70;;;;;;5074414;28;20045;-69
2022/01/07 22:50:14;;;;;;;;;;;-2.10;71.20;;;;;;5066223;28;20040;-70
2022/01/07 22:52:41;;;;;;;37.83;16.25;;;-2.10;71.20;;;;;;5067539;28;19978;-69
2022/01/07 22:55:08;;;;;;;41.67;17.35;;;-2.10;71.60;;;;;;5066709;28;20040;-70
2022/01/07 22:57:45;;;;;;;40.83;17.45;;;-2.10;71.50;;;;;;5073576;28;20033;-69
2022/01/07 23:00:35;;;;;;;;;;;-2.10;71.50;;;;;;5076822;28;20040;-69
2022/01/07 23:03:05;;;;;;;71.60;28.08;;;-2.10;71.50;;;;;;5069912;28;19927;-69
2022/01/07 23:05:37;;;;;;;49.50;18.67;;;-2.10;71.50;;;;;;5065755;28;20558;-70
2022/01/07 23:08:09;;;;;;;39.25;17.27;;;-2.10;71.20;;;;;;5041206;28;20036;-69
2022/01/07 23:10:46;;;;;;;36.92;15.00;;;-2.20;71.00;;;;;;5068574;28;20039;-69
2022/01/07 23:13:57;;;;;;;32.58;14.02;;;-2.30;71.20;;;;;;5070521;28;20043;-70
2022/01/07 23:16:33;;;;;;;38.65;14.95;;;-2.30;71.10;;;;;;5062473;28;20033;-69
2022/01/07 23:19:02;;;;;;;29.25;13.07;;;-2.30;71.10;;;;;;5037016;28;20083;-69
2022/01/07 23:21:28;;;;;;;28.90;14.90;;;-2.40;70.80;;;;;;5053577;28;20060;-69
2022/01/07 23:23:58;;;;;;;34.72;15.27;;;-2.30;71.00;;;;;;5066649;28;20040;-69
2022/01/07 23:26:27;;;;;;;55.45;23.25;;;-2.40;70.60;;;;;;5069402;28;20036;-70
2022/01/07 23:28:56;;;;;;;82.13;30.60;;;-2.40;70.50;;;;;;5070181;28;20489;-70
2022/01/07 23:31:26;;;;;;;53.60;21.50;;;-2.40;70.60;;;;;;5066130;28;20045;-69
2022/01/07 23:33:59;;;;;;;44.20;19.08;;;-2.40;70.60;;;;;;5068843;28;20039;-70
2022/01/07 23:36:37;;;;;;;63.15;22.08;;;-2.40;70.60;;;;;;5054727;28;20079;-69
2022/01/07 23:39:31;;;;;;;51.15;21.10;;;-2.40;70.40;;;;;;5060470;28;20045;-68
2022/01/07 23:42:00;;;;;;;53.70;22.42;;;-2.40;70.30;;;;;;5044025;28;20070;-69
2022/01/07 23:44:39;;;;;;;51.45;22.58;;;-2.50;69.70;;;;;;5051430;28;20396;-69
2022/01/07 23:47:10;;;;;;;59.47;25.42;;;-2.50;70.20;;;;;;5052492;28;20056;-69
2022/01/07 23:49:46;;;;;;;60.38;24.80;;;-2.50;69.60;;;;;;5053633;28;20041;-70
2022/01/07 23:52:29;;;;;;;66.47;27.33;;;-2.50;70.20;;;;;;5062905;28;20603;-70
2022/01/07 23:55:04;;;;;;;59.90;21.95;;;-2.50;70.10;;;;;;5051497;28;20047;-70
2022/01/07 23:57:30;;;;;;;73.07;29.98;;;-2.50;70.00;;;;;;5059358;28;20029;-70
